LFRC/CER METAR and TAF weather

Enter ICAO airport designator
Station Type Date Time Source
LFRC METAR 2022/12/04 11:00 UTC NOAA

LFRC 041100Z AUTO 10010KT 8000 OVC008 04/03 Q1013 TEMPO 08015G25KT


Station Type Date Time Source
LFRC Decoded METAR 2022/12/04 11:00 UTC NOAA

Cherbourg / Maupertus, France (LFRC) 49-39N 001-28W 139M
Dec 04, 2022 - 06:00 AM EST / 2022.12.04 1100 UTC
Wind: from the E (100 degrees) at 12 MPH (10 KT):0
Visibility: 4 mile(s):0
Sky conditions: overcast
Temperature: 39 F (4 C)
Dew Point: 37 F (3 C)
Relative Humidity: 93%
Pressure (altimeter): 29.91 in. Hg (1013 hPa)
ob: LFRC 041100Z AUTO 10010KT 8000 OVC008 04/03 Q1013 TEMPO 08015G25KT
cycle: 11

Station Type Date Time Source
LFRC TAF 2008/10/12 17:07 UTC NOAA

TAF
AMD LFRC 121707Z 121721 CNL

Example: see airport list